Station Historical Data
Daily Summary for March 23, 2017 Units:  Both    English   Metric
« Previous Day
Next Day »
Daily Weekly Monthly Yearly Custom
  High: Low: Average:
Temperature: 40.9 °F /  4.9 °C 15.1 °F /  -9.4 °C 28.7 °F /  -1.8 °C
Dew Point: 19.3 °F /  -7.1 °C 4.7 °F /  -15.2 °C 13.5 °F /  -10.3 °C
Humidity: 85% 23% 57%
Wind Speed: 10.0mph /  16.1km/h - 1.6mph /  2.6km/h
Wind Gust: 11.0mph /  17.7km/h - -
Wind- - South
Pressure: 30.66 in /  1038.1 hPa 30.33 in /  1027 hPa -
Precipitation: 0.00 in /  0 mm    
Historical Graphs
 
 
Tabular Data for March 23, 2017
Time Temperature Dew Point Pressure Wind Wind Speed Wind Gust Humidity Rainfall Rate (Hourly)
00:04 18.9 °F /  -7.3 °C 11.0 °F /  -11.7 °C 30.57in /  1035.1hPa Calm     71% 0.00in /  0mm
00:09 19.1 °F /  -7.2 °C 10.9 °F /  -11.7 °C 30.57in /  1035.1hPa Calm     70% 0.00in /  0mm
00:14 19.1 °F /  -7.2 °C 10.9 °F /  -11.7 °C 30.57in /  1035.1hPa Calm     70% 0.00in /  0mm
00:19 18.8 °F /  -7.3 °C 10.3 °F /  -12.1 °C 30.57in /  1035.1hPa Calm     69% 0.00in /  0mm
00:24 18.9 °F /  -7.3 °C 11.0 °F /  -11.7 °C 30.57in /  1035.1hPa Calm     71% 0.00in /  0mm
00:29 19.2 °F /  -7.1 °C 11.0 °F /  -11.7 °C 30.57in /  1035.1hPa Calm     70% 0.00in /  0mm
00:34 19.0 °F /  -7.2 °C 11.1 °F /  -11.6 °C 30.57in /  1035.1hPa Calm     71% 0.00in /  0mm
00:39 19.3 °F /  -7.1 °C 11.7 °F /  -11.3 °C 30.57in /  1035.1hPa Calm     72% 0.00in /  0mm
00:44 20.2 °F /  -6.6 °C 12.3 °F /  -10.9 °C 30.57in /  1035.1hPa Calm     71% 0.00in /  0mm
00:49 20.5 °F /  -6.4 °C 11.9 °F /  -11.2 °C 30.57in /  1035.1hPa Calm     69% 0.00in /  0mm
00:54 20.7 °F /  -6.3 °C 11.8 °F /  -11.2 °C 30.57in /  1035.1hPa Calm     68% 0.00in /  0mm
00:59 20.7 °F /  -6.3 °C 11.8 °F /  -11.2 °C 30.57in /  1035.1hPa Calm     68% 0.00in /  0mm
01:04 20.6 °F /  -6.3 °C 12.0 °F /  -11.1 °C 30.57in /  1035.1hPa Calm     69% 0.00in /  0mm
01:09 20.5 °F /  -6.4 °C 11.6 °F /  -11.3 °C 30.58in /  1035.4hPa Calm     68% 0.00in /  0mm
01:14 20.4 °F /  -6.4 °C 11.8 °F /  -11.2 °C 30.58in /  1035.4hPa Calm     69% 0.00in /  0mm
01:19 20.3 °F /  -6.5 °C 11.7 °F /  -11.3 °C 30.58in /  1035.4hPa Calm     69% 0.00in /  0mm
01:24 20.4 °F /  -6.4 °C 12.2 °F /  -11 °C 30.58in /  1035.4hPa Calm     70% 0.00in /  0mm
01:29 20.6 °F /  -6.3 °C 12.4 °F /  -10.9 °C 30.58in /  1035.4hPa Calm     70% 0.00in /  0mm
01:34 20.6 °F /  -6.3 °C 12.4 °F /  -10.9 °C 30.58in /  1035.4hPa Calm     70% 0.00in /  0mm
01:39 20.5 °F /  -6.4 °C 12.3 °F /  -10.9 °C 30.57in /  1035.1hPa Calm     70% 0.00in /  0mm
01:44 20.2 °F /  -6.6 °C 12.0 °F /  -11.1 °C 30.58in /  1035.4hPa Calm     70% 0.00in /  0mm
01:49 19.9 °F /  -6.7 °C 12.0 °F /  -11.1 °C 30.58in /  1035.4hPa Calm     71% 0.00in /  0mm
01:54 19.6 °F /  -6.9 °C 12.0 °F /  -11.1 °C 30.58in /  1035.4hPa Calm     72% 0.00in /  0mm
01:59 19.2 °F /  -7.1 °C 11.6 °F /  -11.3 °C 30.58in /  1035.4hPa Calm     72% 0.00in /  0mm
02:04 19.4 °F /  -7 °C 12.2 °F /  -11 °C 30.58in /  1035.4hPa Calm     73% 0.00in /  0mm
02:09 19.7 °F /  -6.8 °C 12.4 °F /  -10.9 °C 30.58in /  1035.4hPa Calm     73% 0.00in /  0mm
02:14 19.7 °F /  -6.8 °C 12.4 °F /  -10.9 °C 30.58in /  1035.4hPa Calm     73% 0.00in /  0mm
02:19 19.7 °F /  -6.8 °C 12.8 °F /  -10.7 °C 30.58in /  1035.4hPa Calm     74% 0.00in /  0mm
02:24 19.7 °F /  -6.8 °C 12.8 °F /  -10.7 °C 30.58in /  1035.4hPa Calm     74% 0.00in /  0mm
02:29 19.3 °F /  -7.1 °C 12.4 °F /  -10.9 °C 30.58in /  1035.4hPa Calm     74% 0.00in /  0mm
02:34 19.1 °F /  -7.2 °C 12.2 °F /  -11 °C 30.58in /  1035.4hPa Calm     74% 0.00in /  0mm
02:39 18.8 °F /  -7.3 °C 12.2 °F /  -11 °C 30.58in /  1035.4hPa Calm     75% 0.00in /  0mm
02:44 18.7 °F /  -7.4 °C 12.4 °F /  -10.9 °C 30.58in /  1035.4hPa Calm     76% 0.00in /  0mm
02:49 18.8 °F /  -7.3 °C 12.8 °F /  -10.7 °C 30.58in /  1035.4hPa Calm     77% 0.00in /  0mm
02:54 18.8 °F /  -7.3 °C 12.8 °F /  -10.7 °C 30.58in /  1035.4hPa Calm     77% 0.00in /  0mm
02:59 18.6 °F /  -7.4 °C 12.6 °F /  -10.8 °C 30.58in /  1035.4hPa Calm     77% 0.00in /  0mm
03:04 18.5 °F /  -7.5 °C 12.8 °F /  -10.7 °C 30.59in /  1035.8hPa Calm     78% 0.00in /  0mm
03:09 18.4 °F /  -7.6 °C 12.7 °F /  -10.7 °C 30.58in /  1035.4hPa Calm     78% 0.00in /  0mm
03:14 18.2 °F /  -7.7 °C 12.8 °F /  -10.7 °C 30.59in /  1035.8hPa Calm     79% 0.00in /  0mm
03:19 18.2 °F /  -7.7 °C 13.1 °F /  -10.5 °C 30.59in /  1035.8hPa Calm     80% 0.00in /  0mm
03:24 18.2 °F /  -7.7 °C 12.8 °F /  -10.7 °C 30.58in /  1035.4hPa Calm     79% 0.00in /  0mm
03:29 17.9 °F /  -7.8 °C 12.5 °F /  -10.8 °C 30.58in /  1035.4hPa Calm     79% 0.00in /  0mm
03:34 17.6 °F /  -8 °C 12.5 °F /  -10.8 °C 30.58in /  1035.4hPa Calm     80% 0.00in /  0mm
03:39 17.5 °F /  -8.1 °C 12.7 °F /  -10.7 °C 30.58in /  1035.4hPa Calm     81% 0.00in /  0mm
03:44 17.5 °F /  -8.1 °C 12.4 °F /  -10.9 °C 30.59in /  1035.8hPa Calm     80% 0.00in /  0mm
03:49 17.2 °F /  -8.2 °C 12.1 °F /  -11.1 °C 30.59in /  1035.8hPa Calm     80% 0.00in /  0mm
03:54 17.0 °F /  -8.3 °C 11.9 °F /  -11.2 °C 30.59in /  1035.8hPa Calm     80% 0.00in /  0mm
03:59 16.9 °F /  -8.4 °C 11.8 °F /  -11.2 °C 30.59in /  1035.8hPa Calm     80% 0.00in /  0mm
04:04 16.8 °F /  -8.4 °C 12.0 °F /  -11.1 °C 30.59in /  1035.8hPa Calm     81% 0.00in /  0mm
04:09 16.6 °F /  -8.6 °C 11.8 °F /  -11.2 °C 30.58in /  1035.4hPa Calm     81% 0.00in /  0mm
04:14 16.4 °F /  -8.7 °C 11.6 °F /  -11.3 °C 30.59in /  1035.8hPa Calm     81% 0.00in /  0mm
04:19 16.2 °F /  -8.8 °C 11.7 °F /  -11.3 °C 30.59in /  1035.8hPa Calm     82% 0.00in /  0mm
04:24 16.2 °F /  -8.8 °C 11.7 °F /  -11.3 °C 30.59in /  1035.8hPa Calm     82% 0.00in /  0mm
04:29 16.1 °F /  -8.8 °C 11.6 °F /  -11.3 °C 30.59in /  1035.8hPa Calm     82% 0.00in /  0mm
04:34 15.9 °F /  -8.9 °C 11.4 °F /  -11.4 °C 30.59in /  1035.8hPa Calm     82% 0.00in /  0mm
04:39 15.9 °F /  -8.9 °C 11.7 °F /  -11.3 °C 30.59in /  1035.8hPa Calm     83% 0.00in /  0mm
04:44 15.9 °F /  -8.9 °C 11.7 °F /  -11.3 °C 30.59in /  1035.8hPa Calm     83% 0.00in /  0mm
04:49 15.8 °F /  -9 °C 11.6 °F /  -11.3 °C 30.59in /  1035.8hPa Calm     83% 0.00in /  0mm
04:54 15.8 °F /  -9 °C 11.8 °F /  -11.2 °C 30.59in /  1035.8hPa Calm     84% 0.00in /  0mm
04:59 15.7 °F /  -9.1 °C 11.7 °F /  -11.3 °C 30.59in /  1035.8hPa Calm     84% 0.00in /  0mm
05:04 15.7 °F /  -9.1 °C 11.7 °F /  -11.3 °C 30.60in /  1036.1hPa Calm     84% 0.00in /  0mm
05:09 15.6 °F /  -9.1 °C 11.6 °F /  -11.3 °C 30.60in /  1036.1hPa Calm     84% 0.00in /  0mm
05:14 15.7 °F /  -9.1 °C 11.7 °F /  -11.3 °C 30.60in /  1036.1hPa Calm     84% 0.00in /  0mm
05:19 15.4 °F /  -9.2 °C 11.4 °F /  -11.4 °C 30.60in /  1036.1hPa Calm     84% 0.00in /  0mm
05:24 15.3 °F /  -9.3 °C 11.3 °F /  -11.5 °C 30.61in /  1036.5hPa Calm     84% 0.00in /  0mm
05:29 15.4 °F /  -9.2 °C 11.4 °F /  -11.4 °C 30.61in /  1036.5hPa Calm     84% 0.00in /  0mm
05:34 15.7 °F /  -9.1 °C 11.7 °F /  -11.3 °C 30.61in /  1036.5hPa Calm     84% 0.00in /  0mm
05:39 15.5 °F /  -9.2 °C 11.5 °F /  -11.4 °C 30.61in /  1036.5hPa Calm     84% 0.00in /  0mm
05:44 15.6 °F /  -9.1 °C 11.6 °F /  -11.3 °C 30.61in /  1036.5hPa Calm     84% 0.00in /  0mm
05:49 15.7 °F /  -9.1 °C 11.7 °F /  -11.3 °C 30.61in /  1036.5hPa Calm     84% 0.00in /  0mm
05:54 15.7 °F /  -9.1 °C 11.7 °F /  -11.3 °C 30.61in /  1036.5hPa Calm     84% 0.00in /  0mm
05:59 15.7 °F /  -9.1 °C 11.5 °F /  -11.4 °C 30.61in /  1036.5hPa Calm     83% 0.00in /  0mm
06:04 15.7 °F /  -9.1 °C 11.5 °F /  -11.4 °C 30.61in /  1036.5hPa Calm     83% 0.00in /  0mm
06:09 15.6 °F /  -9.1 °C 11.6 °F /  -11.3 °C 30.61in /  1036.5hPa Calm     84% 0.00in /  0mm
06:14 15.6 °F /  -9.1 °C 11.6 °F /  -11.3 °C 30.61in /  1036.5hPa Calm     84% 0.00in /  0mm
06:19 15.5 °F /  -9.2 °C 11.5 °F /  -11.4 °C 30.61in /  1036.5hPa Calm     84% 0.00in /  0mm
06:24 15.2 °F /  -9.3 °C 11.0 °F /  -11.7 °C 30.61in /  1036.5hPa Calm     83% 0.00in /  0mm
06:29 15.3 °F /  -9.3 °C 11.3 °F /  -11.5 °C 30.62in /  1036.8hPa Calm     84% 0.00in /  0mm
06:34 15.4 °F /  -9.2 °C 11.4 °F /  -11.4 °C 30.62in /  1036.8hPa Calm     84% 0.00in /  0mm
06:39 15.1 °F /  -9.4 °C 11.1 °F /  -11.6 °C 30.62in /  1036.8hPa Calm     84% 0.00in /  0mm
06:44 15.2 °F /  -9.3 °C 11.2 °F /  -11.6 °C 30.62in /  1036.8hPa Calm     84% 0.00in /  0mm
06:49 15.1 °F /  -9.4 °C 11.1 °F /  -11.6 °C 30.62in /  1036.8hPa Calm     84% 0.00in /  0mm
06:54 15.3 °F /  -9.3 °C 11.6 °F /  -11.3 °C 30.62in /  1036.8hPa Calm     85% 0.00in /  0mm
06:59 15.5 °F /  -9.2 °C 11.8 °F /  -11.2 °C 30.62in /  1036.8hPa Calm     85% 0.00in /  0mm
07:04 15.7 °F /  -9.1 °C 12.0 °F /  -11.1 °C 30.62in /  1036.8hPa Calm     85% 0.00in /  0mm
07:09 16.3 °F /  -8.7 °C 12.6 °F /  -10.8 °C 30.62in /  1036.8hPa Calm     85% 0.00in /  0mm
07:14 16.7 °F /  -8.5 °C 13.0 °F /  -10.6 °C 30.62in /  1036.8hPa Calm     85% 0.00in /  0mm
07:19 16.6 °F /  -8.6 °C 12.6 °F /  -10.8 °C 30.62in /  1036.8hPa Calm     84% 0.00in /  0mm
07:24 16.7 °F /  -8.5 °C 12.7 °F /  -10.7 °C 30.63in /  1037.1hPa Calm     84% 0.00in /  0mm
07:29 16.8 °F /  -8.4 °C 12.8 °F /  -10.7 °C 30.63in /  1037.1hPa Calm     84% 0.00in /  0mm
07:34 16.4 °F /  -8.7 °C 12.4 °F /  -10.9 °C 30.63in /  1037.1hPa Calm     84% 0.00in /  0mm
07:39 16.8 °F /  -8.4 °C 13.1 °F /  -10.5 °C 30.63in /  1037.1hPa Calm     85% 0.00in /  0mm
07:44 17.3 °F /  -8.2 °C 13.3 °F /  -10.4 °C 30.63in /  1037.1hPa Calm     84% 0.00in /  0mm
07:49 17.7 °F /  -7.9 °C 13.7 °F /  -10.2 °C 30.64in /  1037.5hPa Calm     84% 0.00in /  0mm
07:54 18.0 °F /  -7.8 °C 14.0 °F /  -10 °C 30.64in /  1037.5hPa Calm     84% 0.00in /  0mm
07:59 18.3 °F /  -7.6 °C 14.0 °F /  -10 °C 30.64in /  1037.5hPa Calm   2.0mph /  3.2km/h 83% 0.00in /  0mm
08:04 18.5 °F /  -7.5 °C 14.2 °F /  -9.9 °C 30.64in /  1037.5hPa Calm   3.0mph /  4.8km/h 83% 0.00in /  0mm
08:09 18.7 °F /  -7.4 °C 14.4 °F /  -9.8 °C 30.64in /  1037.5hPa East 1.0mph /  1.6km/h 3.0mph /  4.8km/h 83% 0.00in /  0mm
08:14 18.8 °F /  -7.3 °C 14.2 °F /  -9.9 °C 30.64in /  1037.5hPa East 1.0mph /  1.6km/h 3.0mph /  4.8km/h 82% 0.00in /  0mm
08:19 18.9 °F /  -7.3 °C 14.3 °F /  -9.8 °C 30.64in /  1037.5hPa Calm   3.0mph /  4.8km/h 82% 0.00in /  0mm
08:24 19.3 °F /  -7.1 °C 14.7 °F /  -9.6 °C 30.64in /  1037.5hPa Calm   3.0mph /  4.8km/h 82% 0.00in /  0mm
08:29 19.7 °F /  -6.8 °C 14.8 °F /  -9.6 °C 30.64in /  1037.5hPa ESE 2.0mph /  3.2km/h 2.0mph /  3.2km/h 81% 0.00in /  0mm
08:34 20.1 °F /  -6.6 °C 14.9 °F /  -9.5 °C 30.64in /  1037.5hPa Calm   2.0mph /  3.2km/h 80% 0.00in /  0mm
08:39 20.8 °F /  -6.2 °C 15.3 °F /  -9.3 °C 30.64in /  1037.5hPa Calm   2.0mph /  3.2km/h 79% 0.00in /  0mm
08:44 21.5 °F /  -5.8 °C 16.0 °F /  -8.9 °C 30.65in /  1037.8hPa Calm     79% 0.00in /  0mm
08:49 22.1 °F /  -5.5 °C 16.0 °F /  -8.9 °C 30.65in /  1037.8hPa Calm   3.0mph /  4.8km/h 77% 0.00in /  0mm
08:54 22.5 °F /  -5.3 °C 16.4 °F /  -8.7 °C 30.65in /  1037.8hPa SSW 1.0mph /  1.6km/h 3.0mph /  4.8km/h 77% 0.00in /  0mm
08:59 22.9 °F /  -5.1 °C 16.5 °F /  -8.6 °C 30.65in /  1037.8hPa SSW 2.0mph /  3.2km/h 4.0mph /  6.4km/h 76% 0.00in /  0mm
09:04 23.2 °F /  -4.9 °C 16.4 °F /  -8.7 °C 30.65in /  1037.8hPa SSW 2.0mph /  3.2km/h 4.0mph /  6.4km/h 75% 0.00in /  0mm
09:09 23.7 °F /  -4.6 °C 16.9 °F /  -8.4 °C 30.65in /  1037.8hPa SSW 2.0mph /  3.2km/h 4.0mph /  6.4km/h 75% 0.00in /  0mm
09:14 24.1 °F /  -4.4 °C 16.7 °F /  -8.5 °C 30.65in /  1037.8hPa WSW 2.0mph /  3.2km/h 4.0mph /  6.4km/h 73% 0.00in /  0mm
09:19 24.3 °F /  -4.3 °C 16.6 °F /  -8.6 °C 30.65in /  1037.8hPa Calm   4.0mph /  6.4km/h 72% 0.00in /  0mm
09:24 24.5 °F /  -4.2 °C 16.8 °F /  -8.4 °C 30.65in /  1037.8hPa South 1.0mph /  1.6km/h 3.0mph /  4.8km/h 72% 0.00in /  0mm
09:29 24.6 °F /  -4.1 °C 16.2 °F /  -8.8 °C 30.66in /  1038.1hPa WSW 2.0mph /  3.2km/h 3.0mph /  4.8km/h 70% 0.00in /  0mm
09:34 25.0 °F /  -3.9 °C 16.6 °F /  -8.6 °C 30.65in /  1037.8hPa Calm   4.0mph /  6.4km/h 70% 0.00in /  0mm
09:39 25.1 °F /  -3.8 °C 16.7 °F /  -8.5 °C 30.65in /  1037.8hPa NE 1.0mph /  1.6km/h 3.0mph /  4.8km/h 70% 0.00in /  0mm
09:44 25.5 °F /  -3.6 °C 16.4 °F /  -8.7 °C 30.65in /  1037.8hPa NE 1.0mph /  1.6km/h 3.0mph /  4.8km/h 68% 0.00in /  0mm
09:49 26.6 °F /  -3 °C 17.5 °F /  -8.1 °C 30.65in /  1037.8hPa NE 1.0mph /  1.6km/h 2.0mph /  3.2km/h 68% 0.00in /  0mm
09:54 26.9 °F /  -2.8 °C 17.7 °F /  -7.9 °C 30.65in /  1037.8hPa Calm   2.0mph /  3.2km/h 68% 0.00in /  0mm
09:59 26.9 °F /  -2.8 °C 17.4 °F /  -8.1 °C 30.65in /  1037.8hPa WSW 1.0mph /  1.6km/h 5.0mph /  8km/h 67% 0.00in /  0mm
10:04 25.8 °F /  -3.4 °C 16.7 °F /  -8.5 °C 30.65in /  1037.8hPa NW 1.0mph /  1.6km/h 5.0mph /  8km/h 68% 0.00in /  0mm
10:09 26.7 °F /  -2.9 °C 17.2 °F /  -8.2 °C 30.66in /  1038.1hPa WNW 2.0mph /  3.2km/h 4.0mph /  6.4km/h 67% 0.00in /  0mm
10:14 26.7 °F /  -2.9 °C 16.9 °F /  -8.4 °C 30.65in /  1037.8hPa NW 2.0mph /  3.2km/h 4.0mph /  6.4km/h 66% 0.00in /  0mm
10:19 26.8 °F /  -2.9 °C 17.6 °F /  -8 °C 30.65in /  1037.8hPa NNW 2.0mph /  3.2km/h 4.0mph /  6.4km/h 68% 0.00in /  0mm
10:24 27.9 °F /  -2.3 °C 18.7 °F /  -7.4 °C 30.65in /  1037.8hPa NNE 1.0mph /  1.6km/h 3.0mph /  4.8km/h 68% 0.00in /  0mm
10:29 28.2 °F /  -2.1 °C 16.8 °F /  -8.4 °C 30.65in /  1037.8hPa Calm   4.0mph /  6.4km/h 62% 0.00in /  0mm
10:34 28.0 °F /  -2.2 °C 17.0 °F /  -8.3 °C 30.65in /  1037.8hPa SW 2.0mph /  3.2km/h 4.0mph /  6.4km/h 63% 0.00in /  0mm
10:39 28.3 °F /  -2.1 °C 16.9 °F /  -8.4 °C 30.65in /  1037.8hPa Calm   4.0mph /  6.4km/h 62% 0.00in /  0mm
10:44 28.8 °F /  -1.8 °C 17.4 °F /  -8.1 °C 30.65in /  1037.8hPa SW 2.0mph /  3.2km/h 4.0mph /  6.4km/h 62% 0.00in /  0mm
10:49 28.6 °F /  -1.9 °C 15.7 °F /  -9.1 °C 30.65in /  1037.8hPa South 2.0mph /  3.2km/h 5.0mph /  8km/h 58% 0.00in /  0mm
10:54 28.8 °F /  -1.8 °C 17.0 °F /  -8.3 °C 30.65in /  1037.8hPa SSW 2.0mph /  3.2km/h 5.0mph /  8km/h 61% 0.00in /  0mm
10:59 29.4 °F /  -1.4 °C 16.0 °F /  -8.9 °C 30.65in /  1037.8hPa South 2.0mph /  3.2km/h 4.0mph /  6.4km/h 57% 0.00in /  0mm
11:04 28.9 °F /  -1.7 °C 14.7 °F /  -9.6 °C 30.65in /  1037.8hPa SE 2.0mph /  3.2km/h 5.0mph /  8km/h 55% 0.00in /  0mm
11:09 29.2 °F /  -1.6 °C 16.2 °F /  -8.8 °C 30.65in /  1037.8hPa SSE 1.0mph /  1.6km/h 4.0mph /  6.4km/h 58% 0.00in /  0mm
11:14 29.4 °F /  -1.4 °C 16.4 °F /  -8.7 °C 30.65in /  1037.8hPa ESE 1.0mph /  1.6km/h 3.0mph /  4.8km/h 58% 0.00in /  0mm
11:19 29.4 °F /  -1.4 °C 16.4 °F /  -8.7 °C 30.65in /  1037.8hPa South 1.0mph /  1.6km/h 4.0mph /  6.4km/h 58% 0.00in /  0mm
11:24 30.2 °F /  -1 °C 16.8 °F /  -8.4 °C 30.64in /  1037.5hPa South 2.0mph /  3.2km/h 5.0mph /  8km/h 57% 0.00in /  0mm
11:29 29.8 °F /  -1.2 °C 16.4 °F /  -8.7 °C 30.64in /  1037.5hPa South 3.0mph /  4.8km/h 5.0mph /  8km/h 57% 0.00in /  0mm
11:34 30.1 °F /  -1.1 °C 16.7 °F /  -8.5 °C 30.64in /  1037.5hPa WSW 3.0mph /  4.8km/h 4.0mph /  6.4km/h 57% 0.00in /  0mm
11:39 31.4 °F /  -0.3 °C 18.3 °F /  -7.6 °C 30.64in /  1037.5hPa WSW 3.0mph /  4.8km/h 4.0mph /  6.4km/h 58% 0.00in /  0mm
11:44 31.8 °F /  -0.1 °C 16.2 °F /  -8.8 °C 30.63in /  1037.1hPa WSW 1.0mph /  1.6km/h 4.0mph /  6.4km/h 52% 0.00in /  0mm
11:49 32.2 °F /  0.1 °C 18.7 °F /  -7.4 °C 30.63in /  1037.1hPa WSW 2.0mph /  3.2km/h 6.0mph /  9.7km/h 57% 0.00in /  0mm
11:54 31.8 °F /  -0.1 °C 16.6 °F /  -8.6 °C 30.63in /  1037.1hPa NW 3.0mph /  4.8km/h 7.0mph /  11.3km/h 53% 0.00in /  0mm
11:59 32.2 °F /  0.1 °C 17.4 °F /  -8.1 °C 30.63in /  1037.1hPa WSW 4.0mph /  6.4km/h 6.0mph /  9.7km/h 54% 0.00in /  0mm
12:04 32.1 °F /  0.1 °C 16.4 °F /  -8.7 °C 30.63in /  1037.1hPa SSW 1.0mph /  1.6km/h 7.0mph /  11.3km/h 52% 0.00in /  0mm
12:09 31.4 °F /  -0.3 °C 16.7 °F /  -8.5 °C 30.63in /  1037.1hPa Calm   2.0mph /  3.2km/h 54% 0.00in /  0mm
12:14 33.0 °F /  0.6 °C 18.1 °F /  -7.7 °C 30.63in /  1037.1hPa SW 7.0mph /  11.3km/h 7.0mph /  11.3km/h 54% 0.00in /  0mm
12:19 32.7 °F /  0.4 °C 15.6 °F /  -9.1 °C 30.62in /  1036.8hPa SW 3.0mph /  4.8km/h 7.0mph /  11.3km/h 49% 0.00in /  0mm
12:24 33.6 °F /  0.9 °C 17.8 °F /  -7.9 °C 30.62in /  1036.8hPa SW 3.0mph /  4.8km/h 7.0mph /  11.3km/h 52% 0.00in /  0mm
12:29 33.7 °F /  0.9 °C 15.6 °F /  -9.1 °C 30.62in /  1036.8hPa SW 3.0mph /  4.8km/h 8.0mph /  12.9km/h 47% 0.00in /  0mm
12:34 33.3 °F /  0.7 °C 14.2 °F /  -9.9 °C 30.62in /  1036.8hPa SSW 3.0mph /  4.8km/h 8.0mph /  12.9km/h 45% 0.00in /  0mm
12:39 33.9 °F /  1.1 °C 17.7 °F /  -7.9 °C 30.62in /  1036.8hPa WNW 2.0mph /  3.2km/h 6.0mph /  9.7km/h 51% 0.00in /  0mm
12:44 33.5 °F /  0.8 °C 16.4 °F /  -8.7 °C 30.62in /  1036.8hPa NW 2.0mph /  3.2km/h 5.0mph /  8km/h 49% 0.00in /  0mm
12:49 33.7 °F /  0.9 °C 15.6 °F /  -9.1 °C 30.62in /  1036.8hPa West 3.0mph /  4.8km/h 4.0mph /  6.4km/h 47% 0.00in /  0mm
12:54 33.9 °F /  1.1 °C 16.3 °F /  -8.7 °C 30.61in /  1036.5hPa SE 3.0mph /  4.8km/h 7.0mph /  11.3km/h 48% 0.00in /  0mm
12:59 34.6 °F /  1.4 °C 16.9 °F /  -8.4 °C 30.61in /  1036.5hPa South 1.0mph /  1.6km/h 4.0mph /  6.4km/h 48% 0.00in /  0mm
13:04 34.8 °F /  1.6 °C 17.6 °F /  -8 °C 30.61in /  1036.5hPa NNW 2.0mph /  3.2km/h 7.0mph /  11.3km/h 49% 0.00in /  0mm
13:09 34.8 °F /  1.6 °C 16.6 °F /  -8.6 °C 30.61in /  1036.5hPa Calm   6.0mph /  9.7km/h 47% 0.00in /  0mm
13:14 34.3 °F /  1.3 °C 15.1 °F /  -9.4 °C 30.61in /  1036.5hPa North 1.0mph /  1.6km/h 4.0mph /  6.4km/h 45% 0.00in /  0mm
13:19 34.8 °F /  1.6 °C 15.6 °F /  -9.1 °C 30.61in /  1036.5hPa West 2.0mph /  3.2km/h 5.0mph /  8km/h 45% 0.00in /  0mm
13:24 35.0 °F /  1.7 °C 16.3 °F /  -8.7 °C 30.60in /  1036.1hPa WSW 2.0mph /  3.2km/h 7.0mph /  11.3km/h 46% 0.00in /  0mm
13:29 35.8 °F /  2.1 °C 17.0 °F /  -8.3 °C 30.60in /  1036.1hPa West 3.0mph /  4.8km/h 7.0mph /  11.3km/h 46% 0.00in /  0mm
13:34 36.6 °F /  2.6 °C 17.2 °F /  -8.2 °C 30.60in /  1036.1hPa WNW 3.0mph /  4.8km/h 7.0mph /  11.3km/h 45% 0.00in /  0mm
13:39 36.4 °F /  2.4 °C 16.0 °F /  -8.9 °C 30.60in /  1036.1hPa SSW 5.0mph /  8km/h 8.0mph /  12.9km/h 43% 0.00in /  0mm
13:44 36.2 °F /  2.3 °C 15.8 °F /  -9 °C 30.60in /  1036.1hPa SSW 5.0mph /  8km/h 9.0mph /  14.5km/h 43% 0.00in /  0mm
13:49 35.5 °F /  1.9 °C 14.6 °F /  -9.7 °C 30.59in /  1035.8hPa WSW 2.0mph /  3.2km/h 8.0mph /  12.9km/h 42% 0.00in /  0mm
13:54 36.0 °F /  2.2 °C 11.6 °F /  -11.3 °C 30.59in /  1035.8hPa SW 3.0mph /  4.8km/h 8.0mph /  12.9km/h 36% 0.00in /  0mm
13:59 36.0 °F /  2.2 °C 11.0 °F /  -11.7 °C 30.59in /  1035.8hPa WSW 3.0mph /  4.8km/h 9.0mph /  14.5km/h 35% 0.00in /  0mm
14:04 36.9 °F /  2.7 °C 13.6 °F /  -10.2 °C 30.58in /  1035.4hPa WNW 5.0mph /  8km/h 7.0mph /  11.3km/h 38% 0.00in /  0mm
14:09 36.8 °F /  2.7 °C 11.0 °F /  -11.7 °C 30.58in /  1035.4hPa WSW 5.0mph /  8km/h 9.0mph /  14.5km/h 34% 0.00in /  0mm
14:14 36.7 °F /  2.6 °C 11.6 °F /  -11.3 °C 30.58in /  1035.4hPa WSW 6.0mph /  9.7km/h 7.0mph /  11.3km/h 35% 0.00in /  0mm
14:19 37.1 °F /  2.8 °C 12.6 °F /  -10.8 °C 30.58in /  1035.4hPa West 4.0mph /  6.4km/h 9.0mph /  14.5km/h 36% 0.00in /  0mm
14:24 36.8 °F /  2.7 °C 10.3 °F /  -12.1 °C 30.57in /  1035.1hPa WSW 5.0mph /  8km/h 9.0mph /  14.5km/h 33% 0.00in /  0mm
14:29 37.1 °F /  2.8 °C 12.6 °F /  -10.8 °C 30.57in /  1035.1hPa WSW 4.0mph /  6.4km/h 8.0mph /  12.9km/h 36% 0.00in /  0mm
14:34 36.7 °F /  2.6 °C 11.6 °F /  -11.3 °C 30.57in /  1035.1hPa WNW 6.0mph /  9.7km/h 10.0mph /  16.1km/h 35% 0.00in /  0mm
14:39 37.2 °F /  2.9 °C 10.0 °F /  -12.2 °C 30.56in /  1034.8hPa WSW 5.0mph /  8km/h 8.0mph /  12.9km/h 32% 0.00in /  0mm
14:44 37.2 °F /  2.9 °C 12.7 °F /  -10.7 °C 30.56in /  1034.8hPa SW 5.0mph /  8km/h 6.0mph /  9.7km/h 36% 0.00in /  0mm
14:49 37.2 °F /  2.9 °C 9.3 °F /  -12.6 °C 30.56in /  1034.8hPa SSW 2.0mph /  3.2km/h 6.0mph /  9.7km/h 31% 0.00in /  0mm
14:54 36.8 °F /  2.7 °C 10.3 °F /  -12.1 °C 30.55in /  1034.4hPa SW 3.0mph /  4.8km/h 6.0mph /  9.7km/h 33% 0.00in /  0mm
14:59 37.2 °F /  2.9 °C 13.9 °F /  -10.1 °C 30.55in /  1034.4hPa SW 4.0mph /  6.4km/h 11.0mph /  17.7km/h 38% 0.00in /  0mm
15:04 38.0 °F /  3.3 °C 14.6 °F /  -9.7 °C 30.54in /  1034.1hPa SW 4.0mph /  6.4km/h 11.0mph /  17.7km/h 38% 0.00in /  0mm
15:09 38.0 °F /  3.3 °C 12.7 °F /  -10.7 °C 30.54in /  1034.1hPa SW 4.0mph /  6.4km/h 7.0mph /  11.3km/h 35% 0.00in /  0mm
15:14 37.7 °F /  3.2 °C 12.5 °F /  -10.8 °C 30.54in /  1034.1hPa SSW 1.0mph /  1.6km/h 6.0mph /  9.7km/h 35% 0.00in /  0mm
15:19 38.3 °F /  3.5 °C 12.3 °F /  -10.9 °C 30.53in /  1033.7hPa SSW 4.0mph /  6.4km/h 5.0mph /  8km/h 34% 0.00in /  0mm
15:24 37.9 °F /  3.3 °C 13.9 °F /  -10.1 °C 30.53in /  1033.7hPa NE 3.0mph /  4.8km/h 6.0mph /  9.7km/h 37% 0.00in /  0mm
15:29 38.4 °F /  3.6 °C 16.1 °F /  -8.8 °C 30.53in /  1033.7hPa SSE 3.0mph /  4.8km/h 7.0mph /  11.3km/h 40% 0.00in /  0mm
15:34 39.0 °F /  3.9 °C 14.9 °F /  -9.5 °C 30.53in /  1033.7hPa SSW 3.0mph /  4.8km/h 7.0mph /  11.3km/h 37% 0.00in /  0mm
15:39 39.3 °F /  4.1 °C 13.9 °F /  -10.1 °C 30.52in /  1033.4hPa SW 3.0mph /  4.8km/h 7.0mph /  11.3km/h 35% 0.00in /  0mm
15:44 39.6 °F /  4.2 °C 14.2 °F /  -9.9 °C 30.52in /  1033.4hPa SW 5.0mph /  8km/h 5.0mph /  8km/h 35% 0.00in /  0mm
15:49 39.8 °F /  4.3 °C 14.3 °F /  -9.8 °C 30.52in /  1033.4hPa SSW 1.0mph /  1.6km/h 7.0mph /  11.3km/h 35% 0.00in /  0mm
15:54 40.0 °F /  4.4 °C 11.0 °F /  -11.7 °C 30.52in /  1033.4hPa SE 1.0mph /  1.6km/h 4.0mph /  6.4km/h 30% 0.00in /  0mm
15:59 40.4 °F /  4.7 °C 12.1 °F /  -11.1 °C 30.52in /  1033.4hPa South 2.0mph /  3.2km/h 6.0mph /  9.7km/h 31% 0.00in /  0mm
16:04 39.6 °F /  4.2 °C 9.1 °F /  -12.7 °C 30.52in /  1033.4hPa SW 2.0mph /  3.2km/h 6.0mph /  9.7km/h 28% 0.00in /  0mm
16:09 39.9 °F /  4.4 °C 10.9 °F /  -11.7 °C 30.52in /  1033.4hPa WSW 2.0mph /  3.2km/h 8.0mph /  12.9km/h 30% 0.00in /  0mm
16:14 40.0 °F /  4.4 °C 9.5 °F /  -12.5 °C 30.51in /  1033.1hPa South 3.0mph /  4.8km/h 6.0mph /  9.7km/h 28% 0.00in /  0mm
16:19 40.0 °F /  4.4 °C 9.5 °F /  -12.5 °C 30.51in /  1033.1hPa WSW 2.0mph /  3.2km/h 6.0mph /  9.7km/h 28% 0.00in /  0mm
16:24 40.0 °F /  4.4 °C 8.7 °F /  -12.9 °C 30.50in /  1032.7hPa SSW 2.0mph /  3.2km/h 6.0mph /  9.7km/h 27% 0.00in /  0mm
16:34 40.8 °F /  4.9 °C 10.2 °F /  -12.1 °C 30.49in /  1032.4hPa West 2.0mph /  3.2km/h 4.0mph /  6.4km/h 28% 0.00in /  0mm
16:39 40.7 °F /  4.8 °C 9.3 °F /  -12.6 °C 30.49in /  1032.4hPa WSW 1.0mph /  1.6km/h 5.0mph /  8km/h 27% 0.00in /  0mm
16:44 40.4 °F /  4.7 °C 9.8 °F /  -12.3 °C 30.49in /  1032.4hPa SSW 5.0mph /  8km/h 5.0mph /  8km/h 28% 0.00in /  0mm
16:49 40.0 °F /  4.4 °C 6.9 °F /  -13.9 °C 30.49in /  1032.4hPa South 1.0mph /  1.6km/h 5.0mph /  8km/h 25% 0.00in /  0mm
16:54 39.5 °F /  4.2 °C 4.7 °F /  -15.2 °C 30.49in /  1032.4hPa SW 1.0mph /  1.6km/h 4.0mph /  6.4km/h 23% 0.00in /  0mm
16:59 39.5 °F /  4.2 °C 9.0 °F /  -12.8 °C 30.48in /  1032.1hPa SW 1.0mph /  1.6km/h 4.0mph /  6.4km/h 28% 0.00in /  0mm
17:04 40.3 °F /  4.6 °C 9.7 °F /  -12.4 °C 30.48in /  1032.1hPa SW 2.0mph /  3.2km/h 4.0mph /  6.4km/h 28% 0.00in /  0mm
17:09 40.6 °F /  4.8 °C 6.6 °F /  -14.1 °C 30.48in /  1032.1hPa SSW 2.0mph /  3.2km/h 4.0mph /  6.4km/h 24% 0.00in /  0mm
17:14 40.5 °F /  4.7 °C 9.1 °F /  -12.7 °C 30.48in /  1032.1hPa NE 1.0mph /  1.6km/h 4.0mph /  6.4km/h 27% 0.00in /  0mm
17:19 40.8 °F /  4.9 °C 8.5 °F /  -13.1 °C 30.48in /  1032.1hPa SSW 2.0mph /  3.2km/h 3.0mph /  4.8km/h 26% 0.00in /  0mm
17:24 40.9 °F /  4.9 °C 6.8 °F /  -14 °C 30.48in /  1032.1hPa SW 1.0mph /  1.6km/h 6.0mph /  9.7km/h 24% 0.00in /  0mm
17:29 40.8 °F /  4.9 °C 8.5 °F /  -13.1 °C 30.47in /  1031.7hPa WNW 3.0mph /  4.8km/h 5.0mph /  8km/h 26% 0.00in /  0mm
17:34 40.6 °F /  4.8 °C 8.3 °F /  -13.2 °C 30.47in /  1031.7hPa WNW 3.0mph /  4.8km/h 5.0mph /  8km/h 26% 0.00in /  0mm
17:39 40.4 °F /  4.7 °C 8.2 °F /  -13.2 °C 30.47in /  1031.7hPa WNW 3.0mph /  4.8km/h 5.0mph /  8km/h 26% 0.00in /  0mm
17:44 40.2 °F /  4.6 °C 6.2 °F /  -14.3 °C 30.47in /  1031.7hPa Calm   2.0mph /  3.2km/h 24% 0.00in /  0mm
17:49 40.0 °F /  4.4 °C 6.9 °F /  -13.9 °C 30.46in /  1031.4hPa Calm   4.0mph /  6.4km/h 25% 0.00in /  0mm
17:54 40.1 °F /  4.5 °C 8.7 °F /  -12.9 °C 30.46in /  1031.4hPa NNW 2.0mph /  3.2km/h 4.0mph /  6.4km/h 27% 0.00in /  0mm
17:59 39.9 °F /  4.4 °C 8.6 °F /  -13 °C 30.46in /  1031.4hPa NNW 2.0mph /  3.2km/h 4.0mph /  6.4km/h 27% 0.00in /  0mm
18:04 39.7 °F /  4.3 °C 6.7 °F /  -14.1 °C 30.46in /  1031.4hPa NW 1.0mph /  1.6km/h 4.0mph /  6.4km/h 25% 0.00in /  0mm
18:09 39.4 °F /  4.1 °C 7.3 °F /  -13.7 °C 30.45in /  1031hPa North 1.0mph /  1.6km/h 3.0mph /  4.8km/h 26% 0.00in /  0mm
18:14 39.1 °F /  3.9 °C 7.9 °F /  -13.4 °C 30.45in /  1031hPa East 1.0mph /  1.6km/h 2.0mph /  3.2km/h 27% 0.00in /  0mm
18:19 38.8 °F /  3.8 °C 9.2 °F /  -12.7 °C 30.45in /  1031hPa NE 1.0mph /  1.6km/h 3.0mph /  4.8km/h 29% 0.00in /  0mm
18:24 38.6 °F /  3.7 °C 7.4 °F /  -13.7 °C 30.44in /  1030.7hPa SSW 1.0mph /  1.6km/h 2.0mph /  3.2km/h 27% 0.00in /  0mm
18:29 38.7 °F /  3.7 °C 8.3 °F /  -13.2 °C 30.45in /  1031hPa West 1.0mph /  1.6km/h 3.0mph /  4.8km/h 28% 0.00in /  0mm
18:34 38.8 °F /  3.8 °C 9.2 °F /  -12.7 °C 30.45in /  1031hPa NW 1.0mph /  1.6km/h 3.0mph /  4.8km/h 29% 0.00in /  0mm
18:39 38.7 °F /  3.7 °C 8.3 °F /  -13.2 °C 30.45in /  1031hPa NNW 2.0mph /  3.2km/h 3.0mph /  4.8km/h 28% 0.00in /  0mm
18:44 38.6 °F /  3.7 °C 9.0 °F /  -12.8 °C 30.45in /  1031hPa NNW 1.0mph /  1.6km/h 3.0mph /  4.8km/h 29% 0.00in /  0mm
18:49 38.6 °F /  3.7 °C 10.5 °F /  -11.9 °C 30.45in /  1031hPa North 1.0mph /  1.6km/h 4.0mph /  6.4km/h 31% 0.00in /  0mm
18:54 38.4 °F /  3.6 °C 8.9 °F /  -12.8 °C 30.45in /  1031hPa Calm   2.0mph /  3.2km/h 29% 0.00in /  0mm
18:59 38.2 °F /  3.4 °C 10.2 °F /  -12.1 °C 30.46in /  1031.4hPa North 2.0mph /  3.2km/h 2.0mph /  3.2km/h 31% 0.00in /  0mm
19:04 38.1 °F /  3.4 °C 10.1 °F /  -12.2 °C 30.46in /  1031.4hPa NNW 2.0mph /  3.2km/h 5.0mph /  8km/h 31% 0.00in /  0mm
19:09 38.2 °F /  3.4 °C 10.9 °F /  -11.7 °C 30.46in /  1031.4hPa Calm   4.0mph /  6.4km/h 32% 0.00in /  0mm
19:14 38.2 °F /  3.4 °C 10.2 °F /  -12.1 °C 30.45in /  1031hPa North 2.0mph /  3.2km/h 4.0mph /  6.4km/h 31% 0.00in /  0mm
19:19 38.2 °F /  3.4 °C 10.2 °F /  -12.1 °C 30.45in /  1031hPa NE 2.0mph /  3.2km/h 4.0mph /  6.4km/h 31% 0.00in /  0mm
19:24 38.2 °F /  3.4 °C 10.2 °F /  -12.1 °C 30.45in /  1031hPa ENE 2.0mph /  3.2km/h 4.0mph /  6.4km/h 31% 0.00in /  0mm
19:29 38.2 °F /  3.4 °C 11.6 °F /  -11.3 °C 30.44in /  1030.7hPa NE 2.0mph /  3.2km/h 4.0mph /  6.4km/h 33% 0.00in /  0mm
19:34 38.1 °F /  3.4 °C 12.2 °F /  -11 °C 30.43in /  1030.4hPa NE 3.0mph /  4.8km/h 4.0mph /  6.4km/h 34% 0.00in /  0mm
19:39 38.2 °F /  3.4 °C 12.3 °F /  -10.9 °C 30.44in /  1030.7hPa NE 3.0mph /  4.8km/h 5.0mph /  8km/h 34% 0.00in /  0mm
19:44 38.2 °F /  3.4 °C 12.3 °F /  -10.9 °C 30.43in /  1030.4hPa NE 2.0mph /  3.2km/h 5.0mph /  8km/h 34% 0.00in /  0mm
19:49 38.2 °F /  3.4 °C 12.3 °F /  -10.9 °C 30.43in /  1030.4hPa NE 2.0mph /  3.2km/h 4.0mph /  6.4km/h 34% 0.00in /  0mm
19:54 38.2 °F /  3.4 °C 12.3 °F /  -10.9 °C 30.44in /  1030.7hPa NE 1.0mph /  1.6km/h 5.0mph /  8km/h 34% 0.00in /  0mm
19:59 38.2 °F /  3.4 °C 12.9 °F /  -10.6 °C 30.44in /  1030.7hPa NE 4.0mph /  6.4km/h 4.0mph /  6.4km/h 35% 0.00in /  0mm
20:04 38.3 °F /  3.5 °C 12.3 °F /  -10.9 °C 30.44in /  1030.7hPa ENE 3.0mph /  4.8km/h 7.0mph /  11.3km/h 34% 0.00in /  0mm
20:09 38.2 °F /  3.4 °C 12.9 °F /  -10.6 °C 30.44in /  1030.7hPa NE 4.0mph /  6.4km/h 6.0mph /  9.7km/h 35% 0.00in /  0mm
20:14 38.0 °F /  3.3 °C 12.1 °F /  -11.1 °C 30.44in /  1030.7hPa NE 3.0mph /  4.8km/h 8.0mph /  12.9km/h 34% 0.00in /  0mm
20:19 37.9 °F /  3.3 °C 12.0 °F /  -11.1 °C 30.44in /  1030.7hPa NE 4.0mph /  6.4km/h 8.0mph /  12.9km/h 34% 0.00in /  0mm
20:24 37.7 °F /  3.2 °C 11.8 °F /  -11.2 °C 30.44in /  1030.7hPa NE 4.0mph /  6.4km/h 8.0mph /  12.9km/h 34% 0.00in /  0mm
20:29 37.5 °F /  3.1 °C 12.3 °F /  -10.9 °C 30.44in /  1030.7hPa NE 4.0mph /  6.4km/h 8.0mph /  12.9km/h 35% 0.00in /  0mm
20:34 37.1 °F /  2.8 °C 11.9 °F /  -11.2 °C 30.43in /  1030.4hPa NE 3.0mph /  4.8km/h 7.0mph /  11.3km/h 35% 0.00in /  0mm
20:39 36.8 °F /  2.7 °C 12.3 °F /  -10.9 °C 30.43in /  1030.4hPa East 2.0mph /  3.2km/h 7.0mph /  11.3km/h 36% 0.00in /  0mm
20:44 36.5 °F /  2.5 °C 13.3 °F /  -10.4 °C 30.43in /  1030.4hPa NE 3.0mph /  4.8km/h 7.0mph /  11.3km/h 38% 0.00in /  0mm
20:49 36.3 °F /  2.4 °C 13.1 °F /  -10.5 °C 30.43in /  1030.4hPa NE 3.0mph /  4.8km/h 7.0mph /  11.3km/h 38% 0.00in /  0mm
20:54 36.3 °F /  2.4 °C 13.7 °F /  -10.2 °C 30.43in /  1030.4hPa ENE 5.0mph /  8km/h 8.0mph /  12.9km/h 39% 0.00in /  0mm
20:59 36.2 °F /  2.3 °C 14.7 °F /  -9.6 °C 30.43in /  1030.4hPa NE 5.0mph /  8km/h 7.0mph /  11.3km/h 41% 0.00in /  0mm
21:04 36.2 °F /  2.3 °C 15.8 °F /  -9 °C 30.43in /  1030.4hPa ENE 3.0mph /  4.8km/h 8.0mph /  12.9km/h 43% 0.00in /  0mm
21:09 36.2 °F /  2.3 °C 16.4 °F /  -8.7 °C 30.43in /  1030.4hPa NE 3.0mph /  4.8km/h 5.0mph /  8km/h 44% 0.00in /  0mm
21:14 36.1 °F /  2.3 °C 16.8 °F /  -8.4 °C 30.43in /  1030.4hPa ESE 4.0mph /  6.4km/h 8.0mph /  12.9km/h 45% 0.00in /  0mm
21:19 36.1 °F /  2.3 °C 16.8 °F /  -8.4 °C 30.43in /  1030.4hPa ENE 3.0mph /  4.8km/h 8.0mph /  12.9km/h 45% 0.00in /  0mm
21:24 35.9 °F /  2.2 °C 17.1 °F /  -8.3 °C 30.42in /  1030hPa ENE 2.0mph /  3.2km/h 6.0mph /  9.7km/h 46% 0.00in /  0mm
21:29 35.8 °F /  2.1 °C 17.0 °F /  -8.3 °C 30.42in /  1030hPa ENE 3.0mph /  4.8km/h 7.0mph /  11.3km/h 46% 0.00in /  0mm
21:34 35.7 °F /  2.1 °C 17.4 °F /  -8.1 °C 30.42in /  1030hPa ENE 4.0mph /  6.4km/h 8.0mph /  12.9km/h 47% 0.00in /  0mm
21:39 35.7 °F /  2.1 °C 17.4 °F /  -8.1 °C 30.41in /  1029.7hPa NE 5.0mph /  8km/h 9.0mph /  14.5km/h 47% 0.00in /  0mm
21:44 35.6 °F /  2 °C 17.8 °F /  -7.9 °C 30.41in /  1029.7hPa NE 5.0mph /  8km/h 7.0mph /  11.3km/h 48% 0.00in /  0mm
21:49 35.5 °F /  1.9 °C 17.7 °F /  -7.9 °C 30.41in /  1029.7hPa ENE 3.0mph /  4.8km/h 7.0mph /  11.3km/h 48% 0.00in /  0mm
21:54 35.5 °F /  1.9 °C 17.7 °F /  -7.9 °C 30.40in /  1029.3hPa ENE 3.0mph /  4.8km/h 9.0mph /  14.5km/h 48% 0.00in /  0mm
21:59 35.4 °F /  1.9 °C 18.1 °F /  -7.7 °C 30.40in /  1029.3hPa ENE 3.0mph /  4.8km/h 9.0mph /  14.5km/h 49% 0.00in /  0mm
22:04 35.4 °F /  1.9 °C 18.1 °F /  -7.7 °C 30.40in /  1029.3hPa ESE 2.0mph /  3.2km/h 9.0mph /  14.5km/h 49% 0.00in /  0mm
22:09 35.4 °F /  1.9 °C 18.1 °F /  -7.7 °C 30.39in /  1029hPa East 6.0mph /  9.7km/h 10.0mph /  16.1km/h 49% 0.00in /  0mm
22:14 35.3 °F /  1.8 °C 18.0 °F /  -7.8 °C 30.39in /  1029hPa ENE 4.0mph /  6.4km/h 8.0mph /  12.9km/h 49% 0.00in /  0mm
22:19 35.3 °F /  1.8 °C 18.5 °F /  -7.5 °C 30.38in /  1028.7hPa ENE 4.0mph /  6.4km/h 10.0mph /  16.1km/h 50% 0.00in /  0mm
22:24 35.3 °F /  1.8 °C 18.5 °F /  -7.5 °C 30.38in /  1028.7hPa ENE 4.0mph /  6.4km/h 10.0mph /  16.1km/h 50% 0.00in /  0mm
22:29 35.3 °F /  1.8 °C 18.5 °F /  -7.5 °C 30.38in /  1028.7hPa ENE 4.0mph /  6.4km/h 10.0mph /  16.1km/h 50% 0.00in /  0mm
22:34 35.2 °F /  1.8 °C 18.4 °F /  -7.6 °C 30.37in /  1028.3hPa ENE 4.0mph /  6.4km/h 10.0mph /  16.1km/h 50% 0.00in /  0mm
22:39 35.0 °F /  1.7 °C 18.7 °F /  -7.4 °C 30.37in /  1028.3hPa ENE 3.0mph /  4.8km/h 7.0mph /  11.3km/h 51% 0.00in /  0mm
22:44 34.9 °F /  1.6 °C 18.6 °F /  -7.4 °C 30.36in /  1028hPa SE 10.0mph /  16.1km/h 10.0mph /  16.1km/h 51% 0.00in /  0mm
22:49 34.8 °F /  1.6 °C 18.5 °F /  -7.5 °C 30.36in /  1028hPa ESE 3.0mph /  4.8km/h 10.0mph /  16.1km/h 51% 0.00in /  0mm
22:54 34.9 °F /  1.6 °C 18.6 °F /  -7.4 °C 30.36in /  1028hPa East 4.0mph /  6.4km/h 10.0mph /  16.1km/h 51% 0.00in /  0mm
22:59 35.0 °F /  1.7 °C 18.7 °F /  -7.4 °C 30.35in /  1027.7hPa East 5.0mph /  8km/h 10.0mph /  16.1km/h 51% 0.00in /  0mm
23:04 35.0 °F /  1.7 °C 18.7 °F /  -7.4 °C 30.35in /  1027.7hPa ESE 4.0mph /  6.4km/h 7.0mph /  11.3km/h 51% 0.00in /  0mm
23:09 35.0 °F /  1.7 °C 18.7 °F /  -7.4 °C 30.34in /  1027.3hPa ENE 2.0mph /  3.2km/h 6.0mph /  9.7km/h 51% 0.00in /  0mm
23:14 35.0 °F /  1.7 °C 18.7 °F /  -7.4 °C 30.34in /  1027.3hPa East 6.0mph /  9.7km/h 8.0mph /  12.9km/h 51% 0.00in /  0mm
23:19 34.9 °F /  1.6 °C 18.6 °F /  -7.4 °C 30.33in /  1027hPa SSE 3.0mph /  4.8km/h 9.0mph /  14.5km/h 51% 0.00in /  0mm
23:24 34.8 °F /  1.6 °C 18.5 °F /  -7.5 °C 30.33in /  1027hPa East 3.0mph /  4.8km/h 9.0mph /  14.5km/h 51% 0.00in /  0mm
23:29 34.9 °F /  1.6 °C 19.0 °F /  -7.2 °C 30.33in /  1027hPa ESE 3.0mph /  4.8km/h 7.0mph /  11.3km/h 52% 0.00in /  0mm
23:34 35.0 °F /  1.7 °C 19.1 °F /  -7.2 °C 30.33in /  1027hPa ESE 2.0mph /  3.2km/h 7.0mph /  11.3km/h 52% 0.00in /  0mm
23:39 35.1 °F /  1.7 °C 19.2 °F /  -7.1 °C 30.33in /  1027hPa East 2.0mph /  3.2km/h 6.0mph /  9.7km/h 52% 0.00in /  0mm
23:44 35.2 °F /  1.8 °C 19.3 °F /  -7.1 °C 30.33in /  1027hPa East 2.0mph /  3.2km/h 6.0mph /  9.7km/h 52% 0.00in /  0mm
23:49 35.3 °F /  1.8 °C 19.0 °F /  -7.2 °C 30.33in /  1027hPa SSE 3.0mph /  4.8km/h 6.0mph /  9.7km/h 51% 0.00in /  0mm
23:54 35.4 °F /  1.9 °C 19.0 °F /  -7.2 °C 30.33in /  1027hPa East 2.0mph /  3.2km/h 6.0mph /  9.7km/h 51% 0.00in /  0mm
23:59 35.6 °F /  2 °C 18.8 °F /  -7.3 °C 30.34in /  1027.3hPa SSE 1.0mph /  1.6km/h 4.0mph /  6.4km/h 50% 0.00in /  0mm
Buffalo, New York, USA
Compliments of Weather Underground - 2.5 mb